CheckWX is a tool to help pilots better visualize weather data.  It is not intended as a substitute for an official pre-flight weather briefing.

02:53:52 UTC

KVBT METAR
Bentonville Municipal / Louise M Thaden Field Airport
Bentonville, Arkansas, USA
Current

58 mins ago

KVBT 060156Z AUTO 12005KT 10SM BKN120 12/02 A2994 RMK AO2 SLP141 T01170017 TSNO
Observed
Dec-6 @ 01:56 UTC
Wind
  • 120° at 5 KTS
Visibility
10 SM
Flight Rules
VFR
Cloud Levels
  • Broken at 12,000' AGL
Temperature
12°C / 54°F
Dewpoint
C / 36°F
Humidity
51%
Altimeter
29.94" Hg
Pressure
1013.92 hPa
Previous

2 hours ago

KVBT 060056Z AUTO 15004KT 10SM SCT110 13/02 A2993 RMK AO2 SLP137 T01330017 TSNO
Observed
Dec-6 @ 00:56 UTC
Wind
  • 150° at 4 KTS
Visibility
10 SM
Flight Rules
VFR
Cloud Levels
  • Scattered at 11,000' AGL
Temperature
13°C / 55°F
Dewpoint
C / 36°F
Humidity
47%
Altimeter
29.93" Hg
Pressure
1013.52 hPa
Previous

3 hours ago

KVBT 052356Z AUTO 16005KT 10SM SCT110 14/01 A2991 RMK AO2 SLP129 T01390011 10178 20139 53006 TSNO
Observed
Dec-5 @ 23:56 UTC
Wind
  • 160° at 5 KTS
Visibility
10 SM
Flight Rules
VFR
Cloud Levels
  • Scattered at 11,000' AGL
Temperature
14°C / 57°F
Dewpoint
C / 34°F
Humidity
41%
Altimeter
29.91" Hg
Pressure
1012.92 hPa